createdAt,value
2023-08-15T00:00:49.916Z,4.53
2023-08-15T00:05:52.796Z,7.80
2023-08-15T00:10:55.596Z,7.75
2023-08-15T00:15:59.819Z,5.68
2023-08-15T00:21:02.684Z,5.53
2023-08-15T00:26:05.525Z,8.00
2023-08-15T00:31:09.857Z,5.18
2023-08-15T00:36:12.773Z,6.68
2023-08-15T00:41:15.638Z,6.50
2023-08-15T00:46:19.897Z,4.18
2023-08-15T00:51:23.030Z,5.32
2023-08-15T00:56:25.985Z,6.32
2023-08-15T01:01:30.992Z,8.23
2023-08-15T01:06:33.866Z,5.30
2023-08-15T01:11:46.934Z,3.83
2023-08-15T01:16:54.262Z,4.72
2023-08-15T01:21:59.908Z,7.70
2023-08-15T01:27:04.869Z,9.13
2023-08-15T01:32:16.542Z,7.00
2023-08-15T01:37:27.469Z,6.22
2023-08-15T01:42:33.190Z,6.28
2023-08-15T01:47:36.344Z,5.78
2023-08-15T01:52:39.421Z,5.40
2023-08-15T01:57:43.831Z,7.07
2023-08-15T02:02:46.906Z,4.93
2023-08-15T02:07:49.773Z,5.55
2023-08-15T02:12:54.145Z,6.68
2023-08-15T02:17:57.243Z,4.25
2023-08-15T02:23:00.294Z,5.93
2023-08-15T02:28:04.866Z,5.72
2023-08-15T02:33:08.103Z,9.00
2023-08-15T02:38:11.117Z,5.22
2023-08-15T02:43:15.911Z,6.35
2023-08-15T02:48:18.889Z,6.38
2023-08-15T02:53:21.837Z,4.75
2023-08-15T02:58:26.045Z,6.40
2023-08-15T03:03:28.897Z,6.53
2023-08-15T03:08:32.371Z,8.07
2023-08-15T03:13:36.553Z,5.95
2023-08-15T03:18:40.657Z,5.60
2023-08-15T03:23:44.064Z,5.95
2023-08-15T03:28:48.266Z,8.48
2023-08-15T03:33:51.989Z,5.88
2023-08-15T03:38:55.914Z,7.80
2023-08-15T03:44:00.107Z,8.32
2023-08-15T03:49:03.536Z,7.47
2023-08-15T03:54:07.298Z,7.30
2023-08-15T03:59:11.736Z,11.30
2023-08-15T04:04:14.681Z,8.80
2023-08-15T04:09:17.627Z,8.43
2023-08-15T04:14:21.799Z,7.60
2023-08-15T04:19:25.258Z,8.63
2023-08-15T04:24:28.168Z,5.75
2023-08-15T04:29:32.345Z,7.68
2023-08-15T04:34:35.228Z,7.90
2023-08-15T04:39:38.150Z,7.95
2023-08-15T04:44:42.358Z,12.98
2023-08-15T04:49:45.522Z,6.22
2023-08-15T04:54:48.831Z,6.35
2023-08-15T04:59:53.101Z,7.03
2023-08-15T05:04:55.989Z,7.80
2023-08-15T05:09:59.005Z,7.07
2023-08-15T05:15:03.311Z,8.63
2023-08-15T05:20:09.002Z,13.93
2023-08-15T05:25:11.874Z,11.98
2023-08-15T05:30:22.400Z,16.63
2023-08-15T05:35:26.022Z,12.80
2023-08-15T05:40:29.148Z,7.15
2023-08-15T05:45:33.892Z,11.15
2023-08-15T05:50:36.718Z,20.13
2023-08-15T05:55:39.704Z,5.13
2023-08-15T06:00:44.116Z,10.73
2023-08-15T06:05:46.975Z,5.75
2023-08-15T06:10:50.071Z,8.00
2023-08-15T06:15:54.226Z,7.68
2023-08-15T06:20:57.032Z,7.85
2023-08-15T06:25:59.855Z,8.45
2023-08-15T06:31:04.077Z,9.23
2023-08-15T06:36:07.390Z,5.20
2023-08-15T06:41:10.200Z,7.00
2023-08-15T06:46:15.006Z,9.43
2023-08-15T06:51:17.885Z,10.80
2023-08-15T06:56:20.731Z,9.48
2023-08-15T07:01:24.960Z,8.50
2023-08-15T07:06:27.820Z,4.07
2023-08-15T07:11:30.628Z,9.88
2023-08-15T07:16:34.881Z,6.30
2023-08-15T07:21:37.999Z,6.47
2023-08-15T07:26:40.833Z,6.57
2023-08-15T07:31:45.184Z,5.40
2023-08-15T07:36:48.117Z,6.15
2023-08-15T07:41:50.926Z,4.47
2023-08-15T07:46:55.540Z,4.55
2023-08-15T07:51:58.395Z,4.97
2023-08-15T07:57:01.247Z,4.38
2023-08-15T08:02:05.355Z,3.42
2023-08-15T08:07:08.206Z,4.75
2023-08-15T08:12:11.387Z,3.55
2023-08-15T08:17:15.526Z,4.47
2023-08-15T08:22:18.338Z,6.18
2023-08-15T08:27:22.015Z,6.65
2023-08-15T08:32:26.251Z,6.07
2023-08-15T08:37:29.077Z,6.22
2023-08-15T08:42:31.981Z,7.40
2023-08-15T08:47:37.031Z,7.20
2023-08-15T08:52:46.446Z,6.90
2023-08-15T08:57:53.210Z,6.57
2023-08-15T09:02:58.142Z,5.35
2023-08-15T09:08:03.032Z,5.10
2023-08-15T09:13:06.195Z,8.27
2023-08-15T09:18:10.538Z,6.47
2023-08-15T09:23:13.569Z,7.82
2023-08-15T09:28:16.823Z,5.80
2023-08-15T09:33:21.272Z,6.45
2023-08-15T09:38:24.457Z,7.00
2023-08-15T09:43:27.360Z,8.63
2023-08-15T09:48:32.611Z,7.80
2023-08-15T09:53:36.874Z,10.00
2023-08-15T09:58:40.405Z,6.85
2023-08-15T10:03:46.476Z,8.88
2023-08-15T10:08:50.330Z,9.95
2023-08-15T10:13:53.957Z,10.63
2023-08-15T10:18:59.389Z,9.63
2023-08-15T10:24:05.746Z,10.40
2023-08-15T10:29:09.260Z,12.82
2023-08-15T10:34:13.751Z,11.65
2023-08-15T10:39:17.170Z,10.13
2023-08-15T10:44:20.348Z,12.80
2023-08-15T10:49:25.716Z,14.90
2023-08-15T10:54:28.495Z,14.00
2023-08-15T10:59:31.401Z,15.40
2023-08-15T11:04:35.941Z,16.65
2023-08-15T11:09:38.734Z,15.05
2023-08-15T11:14:41.524Z,14.40
2023-08-15T11:19:47.209Z,16.50
2023-08-15T11:24:52.243Z,13.82
2023-08-15T11:29:58.635Z,10.95
2023-08-15T11:35:02.997Z,14.80
2023-08-15T11:40:07.264Z,14.38
2023-08-15T11:45:11.426Z,13.50
2023-08-15T11:50:16.517Z,15.07
2023-08-15T11:55:20.270Z,16.38
2023-08-15T12:00:23.879Z,18.55
2023-08-15T12:05:28.056Z,11.52
2023-08-15T12:10:32.452Z,13.27
2023-08-15T12:15:35.230Z,10.00
2023-08-15T12:20:39.753Z,9.93
2023-08-15T12:25:42.585Z,11.13
2023-08-15T12:30:45.396Z,10.25
2023-08-15T12:35:50.681Z,12.35
2023-08-15T12:40:53.665Z,7.07
2023-08-15T12:45:56.651Z,13.93
2023-08-15T12:51:01.854Z,9.00
2023-08-15T12:56:05.019Z,11.20
2023-08-15T13:01:07.940Z,10.70
2023-08-15T13:06:12.392Z,12.15
2023-08-15T13:11:16.577Z,7.60
2023-08-15T13:16:19.497Z,9.55
2023-08-15T13:21:23.730Z,10.70
2023-08-15T13:26:26.633Z,11.88
2023-08-15T13:31:29.689Z,11.88
2023-08-15T13:36:33.879Z,11.93
2023-08-15T13:41:36.767Z,6.50
2023-08-15T13:46:39.651Z,6.95
2023-08-15T13:51:44.510Z,7.05
2023-08-15T13:56:47.397Z,9.40
2023-08-15T14:01:50.405Z,6.38
2023-08-15T14:06:59.778Z,6.68
2023-08-15T14:12:03.048Z,8.48
2023-08-15T14:17:08.028Z,5.25
2023-08-15T14:22:12.276Z,7.88
2023-08-15T14:27:15.091Z,5.10
2023-08-15T14:32:18.045Z,5.40
2023-08-15T14:37:22.730Z,4.90
2023-08-15T14:42:25.540Z,6.50
2023-08-15T14:47:30.245Z,5.57
2023-08-15T14:52:34.990Z,7.18
2023-08-15T14:57:38.107Z,7.30
2023-08-15T15:02:43.776Z,4.38
2023-08-15T15:07:48.337Z,3.83
2023-08-15T15:12:51.155Z,3.28
2023-08-15T15:17:54.149Z,5.93
2023-08-15T15:22:58.384Z,5.07
2023-08-15T15:28:01.253Z,3.63
2023-08-15T15:33:04.256Z,4.22
2023-08-15T15:38:08.458Z,5.53
2023-08-15T15:43:11.268Z,5.00
2023-08-15T15:48:14.150Z,3.63
2023-08-15T15:53:18.376Z,3.22
2023-08-15T15:58:21.154Z,6.15
2023-08-15T16:03:24.065Z,3.40
2023-08-15T16:08:28.384Z,7.72
2023-08-15T16:13:31.825Z,5.88
2023-08-15T16:18:34.655Z,5.28
2023-08-15T16:23:38.889Z,6.32
2023-08-15T16:28:41.931Z,5.13
2023-08-15T16:33:44.768Z,4.38
2023-08-15T16:38:48.980Z,4.85
2023-08-15T16:43:51.991Z,3.67
2023-08-15T16:48:54.906Z,6.32
2023-08-15T16:53:59.103Z,4.32
2023-08-15T16:59:02.061Z,3.17
2023-08-15T17:04:05.630Z,2.70
2023-08-15T17:09:10.754Z,4.28
2023-08-15T17:14:13.729Z,4.53
2023-08-15T17:19:16.563Z,3.92
2023-08-15T17:24:20.830Z,5.93
2023-08-15T17:29:23.941Z,4.40
2023-08-15T17:34:26.727Z,3.22
2023-08-15T17:39:30.994Z,4.90
2023-08-15T17:44:33.815Z,4.85
2023-08-15T17:49:36.634Z,3.50
2023-08-15T17:54:41.860Z,2.67
2023-08-15T17:59:44.688Z,2.15
2023-08-15T18:04:47.717Z,4.80
2023-08-15T18:09:51.849Z,2.70
2023-08-15T18:14:54.750Z,5.35
2023-08-15T18:19:57.548Z,3.45
2023-08-15T18:25:01.678Z,4.35
2023-08-15T18:30:05.081Z,4.45
2023-08-15T18:35:08.887Z,4.05
2023-08-15T18:40:13.734Z,3.83
2023-08-15T18:45:16.528Z,4.45
2023-08-15T18:50:21.030Z,5.82
2023-08-15T18:55:25.154Z,3.85
2023-08-15T19:00:28.898Z,3.63
2023-08-15T19:05:31.703Z,4.95
2023-08-15T19:10:35.914Z,5.28
2023-08-15T19:15:39.839Z,2.70
2023-08-15T19:20:42.807Z,11.77
2023-08-15T19:25:47.676Z,6.75
2023-08-15T19:30:50.446Z,5.60
2023-08-15T19:35:53.305Z,5.00
2023-08-15T19:40:57.543Z,4.28
2023-08-15T19:46:00.722Z,5.10
2023-08-15T19:51:03.562Z,8.10
2023-08-15T19:56:07.794Z,5.93
2023-08-15T20:01:11.428Z,5.60
2023-08-15T20:06:14.272Z,3.97
2023-08-15T20:11:18.637Z,9.60
2023-08-15T20:16:21.550Z,6.00
2023-08-15T20:21:24.437Z,6.57
2023-08-15T20:26:28.613Z,5.72
2023-08-15T20:31:31.586Z,6.60
2023-08-15T20:36:34.433Z,6.20
2023-08-15T20:41:38.558Z,5.90
2023-08-15T20:46:41.766Z,5.82
2023-08-15T20:51:44.619Z,8.68
2023-08-15T20:56:48.778Z,5.75
2023-08-15T21:01:51.621Z,6.78
2023-08-15T21:06:54.555Z,7.50
2023-08-15T21:11:58.774Z,8.50
2023-08-15T21:17:03.160Z,6.82
2023-08-15T21:22:06.326Z,6.90
2023-08-15T21:27:10.667Z,11.68
2023-08-15T21:32:13.455Z,11.25
2023-08-15T21:37:16.256Z,5.60
2023-08-15T21:42:20.393Z,8.95
2023-08-15T21:47:23.561Z,4.65
2023-08-15T21:52:26.591Z,6.43
2023-08-15T21:57:30.751Z,8.77
2023-08-15T22:02:33.636Z,9.05
2023-08-15T22:07:36.459Z,6.32
2023-08-15T22:12:40.619Z,7.93
2023-08-15T22:17:46.427Z,7.18
2023-08-15T22:22:50.731Z,8.15
2023-08-15T22:27:55.605Z,5.10
2023-08-15T22:32:58.413Z,13.43
2023-08-15T22:38:01.304Z,7.60
2023-08-15T22:43:06.188Z,11.43
2023-08-15T22:48:09.094Z,12.77
2023-08-15T22:53:11.910Z,7.93
2023-08-15T22:58:18.702Z,8.63
2023-08-15T23:03:21.480Z,6.22
2023-08-15T23:08:24.274Z,11.55
2023-08-15T23:13:28.407Z,8.13
2023-08-15T23:18:31.249Z,7.10
2023-08-15T23:23:34.011Z,10.60
2023-08-15T23:28:38.515Z,9.23
2023-08-15T23:33:45.622Z,9.02
2023-08-15T23:38:48.362Z,7.28
2023-08-15T23:43:52.464Z,7.03
2023-08-15T23:48:55.220Z,14.95
2023-08-15T23:53:57.982Z,10.65
2023-08-15T23:59:02.104Z,6.82
